Tiempo atmosférico en la estación meteorológica de Ossa De Montiel, Albacete (905 m.)



Fecha
DESCASC
Temp. máxima en grados centígrados (hora)
DESCASC
Temp. mínima en grados centígrados (hora)
DESCASC
Temp. media en grados centígrados
DESCASC
Racha de viento máxima en m/sg (hora)
DESCASC
Velocidad máxima media en intervalos de 10 minutos(hora)
DESCASC
Precipitaciones diarias en mm
DESCASC
Precipitaciones de 00:00 a 06:00 en mm
DESCASC
Precipitaciones de 06:00 a 12:00 en mm
DESCASC
Precipitaciones de 12:00 a 18:00 en mm
DESCASC
Precipitaciones de 18:00 a 24:00 en mm
DESCASC
16-01-2020 15.4 (13:40) -0.5 (08:10) 7.4 6.67 (14:10) 3.33 (14:20) 0 0 0 0 0
15-01-2020 13.6 (15:10) -1.7 (03:10) 6 8.61 (13:50) 3.89 (11:50) 0 0 0 0 0
14-01-2020 11.6 (14:20) -4.2 (08:30) 3.7 6.11 (14:40) 3.33 (16:30) 0 0 0 0 0
13-01-2020 11.6 (15:40) -5 (07:00) 3.3 6.67 (14:50) 3.61 (14:30) 0 0 0 0 0
12-01-2020 12.3 (15:00) -4.8 (-00:0) 3.8 4.17 (14:10) 1.67 (14:10) 0 0 0 0 0
11-01-2020 11.7 (14:50) -2.9 (-00:0) 4.4 5 (11:40) 2.78 (11:40) 0 0 0 0 0
10-01-2020 10 (15:30) 0.7 (00:00) 5.3 7.22 (15:10) 4.17 (16:30) 0 0 0 0 0
09-01-2020 14.8 (15:00) 0.5 (00:00) 7.7 5.28 (16:10) 2.5 (11:50) 0 0 0 0 0
08-01-2020 15.8 (13:10) -3.3 (-00:0) 6.3 5 (14:20) 3.06 (14:20) 0 0 0 0 0
07-01-2020 15.5 (13:30) -2.5 (-00:0) 6.5 4.17 (14:10) 2.22 (16:00) 0 0 0 0 0
06-01-2020 16.4 (13:40) -1.7 (-00:0) 7.3 4.17 (14:30) 1.94 (14:30) 0 0 0 0 0
05-01-2020 13.5 (15:40) -2.2 (-00:0) 5.6 4.17 (13:50) 2.5 (13:50) 0 0 0 0 0
04-01-2020 13.5 (15:10) 1.2 (00:00) 7.4 7.22 (10:40) 3.33 (10:40) 0 0 0 0 0
03-01-2020 11.6 (13:30) -1.9 (-00:0) 4.9 5 (14:10) 2.5 (14:40) 0 0 0 0 0
02-01-2020 18.1 (14:00) -2.1 (-00:0) 8 3.61 (13:30) 2.22 (13:30) 0 0 0 0 0
01-01-2020 19.3 (13:30) -2.3 (-00:0) 8.5 2.22 (15:30) 1.11 (15:30) 0 0 0 0 0
31-12-2019 18.9 (15:10) -1.3 (-00:0) 8.8 5.83 (15:10) 2.78 (16:10) 0 0 0 0 0
30-12-2019 -- (--) -- (--) -- -- (--) -- (--) -- 0 0 -- 0
29-12-2019 19 (14:00) -1.8 (-00:0) 8.6 3.89 (12:30) 2.22 (12:30) 0 0 0 0 0
28-12-2019 22.2 (13:40) -0.2 (00:00) 11 4.72 (15:30) 2.78 (15:40) 0 0 0 0 0
27-12-2019 19.5 (13:20) 2.2 (00:00) 10.9 3.06 (16:00) 1.67 (16:00) 0 0 0 0 0
26-12-2019 16.4 (13:20) 2.4 (00:00) 9.4 3.61 (13:40) 2.22 (14:30) 0 0 0 0 0
25-12-2019 22.1 (14:20) 0.5 (00:00) 11.3 3.61 (16:00) 1.67 (16:10) 0 0 0 0 0
24-12-2019 20.3 (13:50) 1.3 (00:00) 10.8 3.61 (15:00) 1.67 (14:10) 0 0 0 0 0
23-12-2019 15.2 (14:30) 4 (00:00) 9.6 9.17 (01:10) 4.72 (01:10) 0 0 0 0 0
22-12-2019 13.6 (15:30) 7.8 (00:00) 10.7 18.06 (01:50) 9.44 (01:30) 0 0 0 0 0
21-12-2019 14.3 (16:50) 9.3 (00:00) 11.8 23.61 (21:00) 10.56 (20:50) 22.4 9.8 6.6 3 3
20-12-2019 13.2 (19:20) 11.1 (00:00) 12.2 19.72 (00:10) 10.56 (03:10) 8.4 2 3 1.2 2.2
19-12-2019 12.6 (15:00) 4.7 (00:00) 8.7 16.67 (23:59) 8.89 (23:59) 1.8 0 1 0.6 0.2

Gráficas

Temp. máximas Temp. mínimas Temp. medias Precipitaciones Rachas de viento máximas Velocidades máximas media en intervalos de 10 minutos

Datos horarios

Fecha y hora oficial Temperatura (ºC) Velocidad del viento (km/h) Dirección del viento Racha (km/h) Dirección de racha Precipitación (mm) Presión (hPa) Tendencia (hPa) Humedad (%)
2020-01-17 23:00:00 -- -- -- -- -- -- -- -- --
2020-01-17 22:00:00 -- -- -- -- -- -- -- -- --
2020-01-17 21:00:00 2.9 0 Calma 4 Sudeste 0 -- -- 85
2020-01-17 20:00:00 5.2 0 Calma 4 Noroeste 0 -- -- 79
2020-01-17 19:00:00 7.1 0 Calma 11 Noroeste 0 -- -- 74
2020-01-17 18:00:00 9.2 5 Noroeste 23 Noroeste 0 -- -- 65
2020-01-17 17:00:00 10.3 7 Noroeste 26 Noroeste 0 -- -- 63
2020-01-17 16:00:00 11.2 10 Noroeste 29 Oeste 0 -- -- 58
2020-01-17 15:00:00 12 15 Noroeste 34 Noroeste 0 -- -- 57
2020-01-17 14:00:00 11.3 12 Noroeste 31 Noroeste 0 -- -- 61
2020-01-17 13:00:00 9.9 14 Noroeste 36 Noroeste 0 -- -- 72
2020-01-17 12:00:00 8.8 12 Noroeste 26 Noroeste 0 -- -- 77
2020-01-17 11:00:00 8.6 13 Oeste 25 Oeste 0 -- -- 75
2020-01-17 10:00:00 6.7 8 Oeste 15 Oeste 0 -- -- 75
2020-01-17 09:00:00 6.3 10 Oeste 18 Oeste 0 -- -- 70
2020-01-17 08:00:00 6.2 10 Oeste 18 Oeste 0 -- -- 70
2020-01-17 07:00:00 6.2 9 Oeste 23 Oeste 0 -- -- 67
2020-01-17 06:00:00 5.7 12 Oeste 21 Oeste 0 -- -- 69
2020-01-17 05:00:00 4.7 5 Oeste 19 Oeste 0 -- -- 73
2020-01-17 04:00:00 3.5 6 Oeste 13 Oeste 0 -- -- 76
2020-01-17 03:00:00 2.9 8 Oeste 13 Oeste 0 -- -- 75
2020-01-17 02:00:00 3.7 6 Oeste 14 Sudoeste 0 -- -- 72
2020-01-17 01:00:00 4.2 10 Oeste 22 Oeste 0 -- -- 70
2020-01-17 00:00:00 4.6 11 Oeste 18 Sudoeste 0 -- -- 69
2020-01-16 23:00:00 3.2 0 Calma 3 Sur 0 -- -- 71
2020-01-16 22:00:00 3.6 2 Sur 3 Sudeste 0 -- -- 70
2020-01-16 21:00:00 5 0 Calma 7 Sudoeste 0 -- -- 64
2020-01-16 20:00:00 6.6 3 Sudoeste 6 Sudoeste 0 -- -- 61
2020-01-16 19:00:00 8.7 3 Oeste 14 Oeste 0 -- -- 55
2020-01-16 18:00:00 11.2 8 Oeste 21 Oeste 0 -- -- 48
2020-01-16 17:00:00 12.9 9 Oeste 21 Noroeste 0 -- -- 43
2020-01-16 16:00:00 14.7 8 Oeste 22 Oeste 0 -- -- 40
2020-01-16 15:00:00 14.7 10 Oeste 24 Noroeste 0 -- -- 43
2020-01-16 14:00:00 15.1 11 Oeste 22 Noroeste 0 -- -- 44
2020-01-16 13:00:00 14.9 7 Oeste 18 Oeste 0 -- -- 49
2020-01-16 12:00:00 13.5 4 Sudoeste 12 Oeste 0 -- -- 52
2020-01-16 11:00:00 10.6 0 Calma 3 Sudoeste 0 -- -- 56
2020-01-16 10:00:00 6.7 0 Calma 2 Sudeste 0 -- -- 63
2020-01-16 09:00:00 -0.3 0 Calma 0 Calma 0 -- -- 86
2020-01-16 08:00:00 -0.3 0 Calma 3 Sudeste 0 -- -- 86
2020-01-16 07:00:00 0.1 0 Calma 4 Sudeste 0 -- -- 85
2020-01-16 06:00:00 0.4 0 Calma 4 Sudeste 0 -- -- 84
2020-01-16 05:00:00 0.6 0 Calma 3 Sudeste 0 -- -- 85
2020-01-16 04:00:00 0.7 2 Sudeste 4 Sudeste 0 -- -- 84
2020-01-16 03:00:00 1 0 Calma 4 Sudeste 0 -- -- 85
2020-01-16 02:00:00 1.8 0 Calma 3 Sur 0 -- -- 84
2020-01-16 01:00:00 2.8 0 Calma 8 Sudeste 0 -- -- 82
2020-01-16 00:00:00 3.5 2 Sudeste 6 Sudeste 0 -- -- 80
2020-01-15 23:00:00 3.6 0 Calma 4 Sudeste 0 -- -- 80
2020-01-15 22:00:00 4.9 0 Calma 4 Sudeste -- -- -- 76
2020-01-15 21:00:00 5.6 2 Sur 7 Sudoeste 0 -- -- 72
2020-01-15 20:00:00 7.3 2 Oeste 13 Sudoeste 0 -- -- 67
2020-01-15 19:00:00 9.2 5 Oeste 10 Oeste 0 -- -- 61
2020-01-15 18:00:00 10.2 4 Oeste 27 Noroeste 0 -- -- 56
2020-01-15 17:00:00 11.8 9 Noroeste 23 Oeste 0 -- -- 50
2020-01-15 16:00:00 12.8 12 Noroeste 27 Oeste 0 -- -- 47
2020-01-15 15:00:00 13.1 13 Oeste 26 Norte 0 -- -- 47
2020-01-15 14:00:00 13.4 12 Noroeste 31 Noroeste 0 -- -- 45
2020-01-15 13:00:00 10.6 13 Oeste 25 Noroeste 0 -- -- 53
2020-01-15 12:00:00 11.1 12 Oeste 24 Oeste 0 -- -- 56
2020-01-15 11:00:00 8.9 3 Sudoeste 9 Oeste 0 -- -- 70
2020-01-15 10:00:00 3.1 0 Calma 5 Sur 0 -- -- 93
2020-01-15 09:00:00 -1.2 0 Calma 3 Sur 0 -- -- 96
2020-01-15 08:00:00 -1.6 0 Calma 4 Sudeste 0 -- -- 95
2020-01-15 07:00:00 -1.4 2 Sudeste 4 Sudeste 0 -- -- 95
2020-01-15 06:00:00 -0.9 2 Sudeste 5 Sur 0 -- -- 94
2020-01-15 05:00:00 -0.6 2 Sudeste 5 Nordeste 0 -- -- 94
2020-01-15 04:00:00 -1 0 Calma 4 Sudeste 0 -- -- 95
2020-01-15 03:00:00 -1.5 2 Sudeste 3 Sudeste 0 -- -- 93
2020-01-15 02:00:00 -0.6 0 Calma 4 Sudeste 0 -- -- 93
2020-01-15 01:00:00 -0.7 2 Sudeste 5 Sudeste 0 -- -- 92
2020-01-15 00:00:00 0.1 0 Calma 3 Este 0 -- -- 91
2020-01-14 23:00:00 0.9 0 Calma 4 Sudeste 0 -- -- 88
2020-01-14 22:00:00 1.8 0 Calma 5 Sudoeste 0 -- -- 86
2020-01-14 21:00:00 3 3 Sudoeste 16 Sudoeste 0 -- -- 82
2020-01-14 20:00:00 4.1 6 Oeste 12 Oeste 0 -- -- 79
2020-01-14 19:00:00 5.1 3 Noroeste 9 Noroeste 0 -- -- 66
2020-01-14 18:00:00 6.9 5 Noroeste 18 Oeste 0 -- -- 58
2020-01-14 17:00:00 8.7 9 Oeste 20 Oeste 0 -- -- 47
2020-01-14 16:00:00 10.7 10 Oeste 20 Noroeste 0 -- -- 45
2020-01-14 15:00:00 11.5 9 Oeste 22 Oeste 0 -- -- 41
2020-01-14 14:00:00 11.5 7 Oeste 17 Oeste 0 -- -- 42
2020-01-14 13:00:00 10.8 9 Oeste 16 Oeste 0 -- -- 51
2020-01-14 12:00:00 9.1 7 Oeste 12 Oeste 0 -- -- 60
2020-01-14 11:00:00 6.8 2 Sur 5 Sudeste 0 -- -- 67
2020-01-14 10:00:00 2.7 0 Calma 5 Sudeste 0 -- -- 83
2020-01-14 09:00:00 -3.3 0 Calma 6 Sudeste 0 -- -- 94
2020-01-14 08:00:00 -3.8 0 Calma 2 Este 0 -- -- 94
2020-01-14 07:00:00 -3.6 0 Calma 2 Sudeste 0 -- -- 94
2020-01-14 06:00:00 -3.2 0 Calma 2 Sur 0 -- -- 94
2020-01-14 05:00:00 -2.9 0 Calma 3 Sudeste 0 -- -- 92
2020-01-14 04:00:00 -2.8 0 Calma 3 Este 0 -- -- 90
2020-01-14 03:00:00 -1.2 0 Calma 5 Sudoeste 0 -- -- 90
2020-01-14 02:00:00 -0.8 2 Sudoeste 6 Sudoeste 0 -- -- 90
2020-01-14 01:00:00 -0.5 0 Calma 7 Sudoeste 0 -- -- 89
2020-01-14 00:00:00 -0.8 4 Sudoeste 8 Sudoeste 0 -- -- 88
2020-01-13 23:00:00 -0.1 0 Calma 3 Sur 0 -- -- 85
2020-01-13 22:00:00 0.8 0 Calma 8 Oeste 0 -- -- 80
2020-01-13 21:00:00 2.4 2 Oeste 5 Oeste 0 -- -- 79
2020-01-13 20:00:00 3.5 0 Calma 4 Sudoeste 0 -- -- 72
2020-01-13 19:00:00 5 0 Calma 9 Nordeste 0 -- -- 67
2020-01-13 18:00:00 7.2 4 Norte 14 Norte 0 -- -- 60
2020-01-13 17:00:00 9.7 7 Noroeste 20 Noroeste 0 -- -- 49
2020-01-13 16:00:00 11.5 10 Noroeste 23 Oeste 0 -- -- 43
2020-01-13 15:00:00 11 12 Oeste 24 Oeste 0 -- -- 39
2020-01-13 14:00:00 10.4 12 Noroeste 23 Noroeste 0 -- -- 45
2020-01-13 13:00:00 10.8 11 Oeste 21 Oeste 0 -- -- 46
2020-01-13 12:00:00 9.9 9 Oeste 17 Oeste 0 -- -- 50
2020-01-13 11:00:00 7.6 0 Calma 4 Sudoeste 0 -- -- 54
2020-01-13 10:00:00 2.3 0 Calma 2 Sudeste 0 -- -- 66
2020-01-13 09:00:00 -4.5 0 Calma 0 Calma 0 -- -- 84
2020-01-13 08:00:00 -4.6 0 Calma 0 Calma 0 -- -- 85
2020-01-13 07:00:00 -5 0 Calma 2 Sudeste 0 -- -- 87
2020-01-13 06:00:00 -4.5 0 Calma 2 Sudeste 0 -- -- 86
2020-01-13 05:00:00 -4 0 Calma 0 Calma 0 -- -- 84
2020-01-13 04:00:00 -3.8 0 Calma 2 Sudoeste 0 -- -- 83
2020-01-13 03:00:00 -3 0 Calma 2 Sudoeste 0 -- -- 84
2020-01-13 02:00:00 -3 0 Calma 2 Sudoeste 0 -- -- 83
2020-01-13 01:00:00 -2.3 0 Calma 2 Sudeste 0 -- -- 81
2020-01-13 00:00:00 -2.1 0 Calma 2 Sudeste 0 -- -- 82
2020-01-12 23:00:00 -1.7 0 Calma 4 Sur 0 -- -- 78
2020-01-12 22:00:00 -0.6 0 Calma 4 Nordeste 0 -- -- 77
2020-01-12 21:00:00 0.9 0 Calma 4 Nordeste 0 -- -- 72
2020-01-12 20:00:00 2.1 0 Calma 3 Nordeste 0 -- -- 68
2020-01-12 19:00:00 3.8 0 Calma 9 Norte 0 -- -- 60
2020-01-12 18:00:00 7.3 4 Norte 13 Norte 0 -- -- 47
2020-01-12 17:00:00 9.2 4 Norte 14 Norte 0 -- -- 39
2020-01-12 16:00:00 11.4 6 Norte 14 Norte 0 -- -- 35
2020-01-12 15:00:00 12.3 4 Norte 15 Nordeste 0 -- -- 34
2020-01-12 14:00:00 11 6 Norte 14 Norte 0 -- -- 38
2020-01-12 13:00:00 11.6 4 Noroeste 12 Noroeste 0 -- -- 40
2020-01-12 12:00:00 11.1 2 Noroeste 7 Norte 0 -- -- 47
2020-01-12 11:00:00 7.8 0 Calma 2 Sudeste 0 -- -- 56
2020-01-12 10:00:00 2.1 0 Calma 2 Sur 0 -- -- 67
2020-01-12 09:00:00 -4.5 0 Calma 0 Calma 0 -- -- 88
2020-01-12 08:00:00 -4.7 0 Calma 0 Calma 0 -- -- 90
2020-01-12 07:00:00 -4.6 0 Calma 0 Calma 0 -- -- 89
2020-01-12 06:00:00 -4.2 0 Calma 0 Calma 0 -- -- 91
2020-01-12 05:00:00 -4.1 0 Calma 2 Sudeste 0 -- -- 90
2020-01-12 04:00:00 -3.7 0 Calma 2 Sudeste 0 -- -- 89
2020-01-12 03:00:00 -2.9 0 Calma 2 Sudoeste 0 -- -- 85
2020-01-12 02:00:00 -2.8 0 Calma 2 Este 0 -- -- 87
2020-01-12 01:00:00 -2.6 0 Calma 2 Sudeste 0 -- -- 87
2020-01-12 00:00:00 -1.6 0 Calma 2 Sur 0 -- -- 84
2020-01-11 23:00:00 -0.5 0 Calma 2 Sudeste 0 -- -- 82
2020-01-11 22:00:00 0.2 0 Calma 3 Sudoeste 0 -- -- 80
2020-01-11 21:00:00 2.1 0 Calma 3 Norte 0 -- -- 75
2020-01-11 20:00:00 4 0 Calma 6 Nordeste 0 -- -- 68
2020-01-11 19:00:00 4.7 0 Calma 9 Nordeste 0 -- -- 66
2020-01-11 18:00:00 7.3 5 Nordeste 14 Este 0 -- -- 57
2020-01-11 17:00:00 9.1 7 Este 17 Nordeste 0 -- -- 48
2020-01-11 16:00:00 10.5 8 Este 18 Este 0 -- -- 44
2020-01-11 15:00:00 11.4 8 Este 17 Este 0 -- -- 41
2020-01-11 14:00:00 11.3 7 Sudeste 14 Sur 0 -- -- 45
2020-01-11 13:00:00 10.5 6 Sudeste 15 Este 0 -- -- 50
2020-01-11 12:00:00 8.9 6 Este 18 Este 0 -- -- 58
2020-01-11 11:00:00 7.2 5 Sudeste 13 Sudeste 0 -- -- 61
2020-01-11 10:00:00 3.4 0 Calma 0 Calma 0 -- -- 70
2020-01-11 09:00:00 -2.6 0 Calma 2 Norte 0 -- -- 89
2020-01-11 08:00:00 -2.6 0 Calma 2 Sudoeste 0 -- -- 89
2020-01-11 07:00:00 -2.6 0 Calma 5 Sur 0 -- -- 89
2020-01-11 06:00:00 -2.5 0 Calma 6 Sudoeste 0 -- -- 87
2020-01-11 05:00:00 -2.2 0 Calma 3 Sudoeste 0 -- -- 87
2020-01-11 04:00:00 -1.4 0 Calma 4 Sudoeste 0 -- -- 83
2020-01-11 03:00:00 -0.8 0 Calma 2 Noroeste 0 -- -- 84
2020-01-11 02:00:00 0.2 3 Noroeste 6 Sur 0 -- -- 81
2020-01-11 01:00:00 1.1 0 Calma 9 Nordeste 0 -- -- 77
2020-01-11 00:00:00 1.3 6 Nordeste 10 Nordeste 0 -- -- 76
2020-01-10 23:00:00 2 3 Norte 5 Este 0 -- -- 74
2020-01-10 22:00:00 2.8 3 Nordeste 10 Este 0 -- -- 71
2020-01-10 21:00:00 4.1 5 Este 13 Este 0 -- -- 67
2020-01-10 20:00:00 4.8 4 Este 13 Nordeste 0 -- -- 64
2020-01-10 19:00:00 5.5 4 Nordeste 14 Nordeste 0 -- -- 60
2020-01-10 18:00:00 7.7 9 Nordeste 24 Nordeste 0 -- -- 51
2020-01-10 17:00:00 8.9 11 Este 25 Nordeste 0 -- -- 46
2020-01-10 16:00:00 9.2 10 Nordeste 26 Nordeste 0 -- -- 49
2020-01-10 15:00:00 9.9 12 Nordeste 24 Nordeste 0 -- -- 47
2020-01-10 14:00:00 9.3 12 Nordeste 24 Nordeste 0 -- -- 53
2020-01-10 13:00:00 8.6 9 Nordeste 19 Este 0 -- -- 63
2020-01-10 12:00:00 7.8 10 Nordeste 23 Nordeste 0 -- -- 66
2020-01-10 11:00:00 6.9 9 Nordeste 17 Nordeste 0 -- -- 73
2020-01-10 10:00:00 3.7 7 Nordeste 15 Nordeste 0 -- -- 96
2020-01-10 09:00:00 2.4 0 Calma 3 Norte 0 -- -- 98
2020-01-10 08:00:00 2.3 0 Calma 2 Sur 0 -- -- 97
2020-01-10 07:00:00 2.1 0 Calma 3 Sudoeste 0 -- -- 97
2020-01-10 06:00:00 1.8 0 Calma 4 Sudoeste 0 -- -- 96
2020-01-10 05:00:00 1.3 2 Sudoeste 5 Sudoeste 0 -- -- 95
2020-01-10 04:00:00 1.2 0 Calma 8 Nordeste 0 -- -- 96
2020-01-10 03:00:00 0.7 2 Sur 6 Sur 0 -- -- 95
2020-01-10 02:00:00 1.2 0 Calma 3 Sudeste 0 -- -- 94
2020-01-10 01:00:00 2 0 Calma 3 Sudeste 0 -- -- 93
2020-01-10 00:00:00 2.6 0 Calma 4 Sudoeste 0 -- -- 91
2020-01-09 23:00:00 2.9 0 Calma 5 Sudeste 0 -- -- 89
2020-01-09 22:00:00 4 0 Calma 4 Norte 0 -- -- 85
2020-01-09 21:00:00 4.8 2 Sudoeste 6 Sudoeste 0 -- -- 82
2020-01-09 20:00:00 5.9 4 Sudoeste 8 Sudoeste 0 -- -- 73
2020-01-09 19:00:00 7.4 2 Noroeste 7 Noroeste 0 -- -- 67
2020-01-09 18:00:00 9.5 3 Noroeste 18 Norte 0 -- -- 59
2020-01-09 17:00:00 11.7 7 Noroeste 19 Noroeste 0 -- -- 48
2020-01-09 16:00:00 14 6 Noroeste 16 Noroeste 0 -- -- 42
2020-01-09 15:00:00 14.8 6 Oeste 18 Oeste 0 -- -- 43
2020-01-09 14:00:00 14.3 7 Noroeste 16 Oeste 0 -- -- 43
2020-01-09 13:00:00 13.7 6 Oeste 18 Oeste 0 -- -- 45
2020-01-09 12:00:00 13.3 8 Oeste 17 Oeste 0 -- -- 48
2020-01-09 11:00:00 10.5 3 Sudoeste 7 Sudoeste 0 -- -- 55
2020-01-09 10:00:00 6.5 0 Calma 4 Sur 0 -- -- 64
2020-01-09 09:00:00 0.6 0 Calma 3 Sudeste 0 -- -- 84
2020-01-09 08:00:00 0.7 0 Calma 5 Sur 0 -- -- 83
2020-01-09 07:00:00 0.9 0 Calma 3 Sur 0 -- -- 84
2020-01-09 06:00:00 0.5 2 Sudeste 4 Sudeste 0 -- -- 85
2020-01-09 05:00:00 0.5 0 Calma 3 Sur 0 -- -- 85
2020-01-09 04:00:00 1.3 0 Calma 3 Sudeste 0 -- -- 82
2020-01-09 03:00:00 2.4 0 Calma 4 Sur 0 -- -- 80
2020-01-09 02:00:00 2.7 0 Calma 7 Sur 0 -- -- 78
2020-01-09 01:00:00 3.5 3 Sudoeste 7 Sur 0 -- -- 75
2020-01-09 00:00:00 4.4 3 Sudoeste 8 Sur 0 -- -- 71
2020-01-08 23:00:00 5.1 2 Sudoeste 6 Sur 0 -- -- 67
2020-01-08 22:00:00 5.8 0 Calma 12 Sudeste 0 -- -- 65
2020-01-08 21:00:00 6.5 4 Sudeste 10 Sudeste 0 -- -- 66
2020-01-08 20:00:00 6.9 4 Sudeste 9 Sudeste 0 -- -- 67
2020-01-08 19:00:00 8.3 0 Calma 13 Sudeste 0 -- -- 59
2020-01-08 18:00:00 11.4 6 Sudeste 13 Sudeste 0 -- -- 48
2020-01-08 17:00:00 13.7 4 Sudeste 11 Este 0 -- -- 44
2020-01-08 16:00:00 14.8 6 Este 13 Este 0 -- -- 41
2020-01-08 15:00:00 15 5 Este 18 Este 0 -- -- 39
2020-01-08 14:00:00 14.9 8 Este 16 Este 0 -- -- 41
2020-01-08 13:00:00 15.3 3 Norte 8 Norte 0 -- -- 37
2020-01-08 12:00:00 13.5 0 Calma 3 Sur 0 -- -- 44
2020-01-08 11:00:00 5.3 0 Calma 2 Sudoeste 0 -- -- 63
2020-01-08 10:00:00 1 0 Calma 0 Calma 0 -- -- 78
2020-01-08 09:00:00 -2.5 0 Calma 2 Sudeste 0 -- -- 88
2020-01-08 08:00:00 -3.3 0 Calma 2 Sudeste 0 -- -- 87
2020-01-08 07:00:00 -2.8 0 Calma 2 Sudeste 0 -- -- 86
2020-01-08 06:00:00 -2.7 0 Calma 0 Calma 0 -- -- 85
2020-01-08 05:00:00 -2.4 0 Calma 0 Calma 0 -- -- 85
2020-01-08 04:00:00 -1.7 0 Calma 2 Este 0 -- -- 85
2020-01-08 03:00:00 -1.8 0 Calma 2 Sur 0 -- -- 84
2020-01-08 02:00:00 -1.2 0 Calma 2 Sur 0 -- -- 84
2020-01-08 01:00:00 -1 0 Calma 2 Sudeste 0 -- -- 84
2020-01-08 00:00:00 -0.2 0 Calma 0 Calma 0 -- -- 80
2020-01-07 23:00:00 0.8 0 Calma 2 Sudeste 0 -- -- 78
2020-01-07 22:00:00 1.2 0 Calma 2 Sudeste 0 -- -- 76
2020-01-07 21:00:00 2.3 0 Calma 2 Sudeste 0 -- -- 72
2020-01-07 20:00:00 3.8 0 Calma 2 Sudeste 0 -- -- 65
2020-01-07 19:00:00 6 0 Calma 2 Noroeste 0 -- -- 59
2020-01-07 18:00:00 10 2 Norte 13 Norte 0 -- -- 44
2020-01-07 17:00:00 12.3 7 Norte 15 Norte 0 -- -- 31
2020-01-07 16:00:00 14.2 8 Nordeste 15 Nordeste 0 -- -- 30
2020-01-07 15:00:00 15.1 5 Nordeste 15 Nordeste 0 -- -- 27
2020-01-07 14:00:00 15.2 6 Norte 13 Norte 0 -- -- 29
2020-01-07 13:00:00 14.5 4 Norte 12 Nordeste 0 -- -- 33
2020-01-07 12:00:00 13.1 0 Calma 3 Sudoeste 0 -- -- 51
2020-01-07 11:00:00 8.9 0 Calma 3 Sudoeste 0 -- -- 60
2020-01-07 10:00:00 4.7 0 Calma 2 Sur 0 -- -- 69
2020-01-07 09:00:00 -2 0 Calma 2 Sudeste 0 -- -- 91
2020-01-07 08:00:00 -2.5 0 Calma 2 Nordeste 0 -- -- 90
2020-01-07 07:00:00 -2 0 Calma 2 Sudeste 0 -- -- 91
2020-01-07 06:00:00 -2 0 Calma 3 Sur 0 -- -- 91
2020-01-07 05:00:00 -1.6 0 Calma 2 Sur 0 -- -- 91
2020-01-07 04:00:00 -1.6 0 Calma 2 Sur 0 -- -- 90
2020-01-07 03:00:00 -0.8 0 Calma 3 Nordeste 0 -- -- 90
2020-01-07 02:00:00 -0.5 0 Calma 4 Nordeste 0 -- -- 91
2020-01-07 01:00:00 -0.4 0 Calma 4 Nordeste 0 -- -- 90
2020-01-07 00:00:00 0.5 0 Calma 2 Sur 0 -- -- 88
2020-01-06 23:00:00 0.9 0 Calma 0 Calma 0 -- -- 87
2020-01-06 22:00:00 1.9 0 Calma 3 Nordeste 0 -- -- 85
2020-01-06 21:00:00 2.9 0 Calma 2 Nordeste 0 -- -- 83
2020-01-06 20:00:00 4.3 0 Calma 6 Este 0 -- -- 78
2020-01-06 19:00:00 6.4 0 Calma 6 Norte 0 -- -- 70
2020-01-06 18:00:00 9.6 2 Norte 6 Noroeste 0 -- -- 57
2020-01-06 17:00:00 12 3 Noroeste 11 Norte 0 -- -- 43
2020-01-06 16:00:00 14.5 4 Noroeste 13 Noroeste 0 -- -- 43
2020-01-06 15:00:00 14.6 7 Noroeste 15 Nordeste 0 -- -- 43
2020-01-06 14:00:00 16.4 4 Noroeste 14 Noroeste 0 -- -- 32
2020-01-06 13:00:00 16.1 0 Calma 4 Sur 0 -- -- 34
2020-01-06 12:00:00 14.3 0 Calma 3 Sudoeste 0 -- -- 40
2020-01-06 11:00:00 11.1 0 Calma 4 Sudeste 0 -- -- 43
2020-01-06 10:00:00 7.1 0 Calma 2 Sudoeste 0 -- -- 52